Time;durP1;ratioP1;P1;durP2;ratioP2;P2;SDS_P1;SDS_P2;PMS_P1;PMS_P2;Temp;Humidity;BMP_temperature;BMP_pressure;BME280_temperature;BME280_humidity;BME280_pressure;Samples;Min_cycle;Max_cycle;Signal;HPM_P1;HPM_P2
2023/03/28 00:02:02;;;;;;;;;;;;;;;;;;5068560;28;19990;-68
2023/03/28 00:04:30;;;;;;;;;;;;;;;;;;5068178;28;20391;-69
2023/03/28 00:06:57;;;;;;;;;;;;;;;;;;5069506;28;19935;-69
2023/03/28 00:09:26;;;;;;;;;;;;;;;;;;5066284;28;21565;-68
2023/03/28 00:11:53;;;;;;;;;;;;;;;;;;5070251;28;19960;-69
2023/03/28 00:14:20;;;;;;;;;;;;;;;;;;5069626;28;19924;-68
2023/03/28 00:16:47;;;;;;;;;;;;;;;;;;5070233;28;19933;-68
2023/03/28 00:19:14;;;;;;;;;;;;;;;;;;5069483;28;19931;-69
2023/03/28 00:21:41;;;;;;;;;;;;;;;;;;5070160;28;20514;-68
2023/03/28 00:24:09;;;;;;;;;;;;;;;;;;5070167;28;19932;-68
2023/03/28 00:26:36;;;;;;;;;;;;;;;;;;5069917;28;19924;-68
2023/03/28 00:29:03;;;;;;;;;;;;;;;;;;5068535;28;20029;-68
2023/03/28 00:31:30;;;;;;;;;;;;;;;;;;5070279;28;19928;-68
2023/03/28 00:33:57;;;;;;;;;;;;;;;;;;5063050;28;19924;-68
2023/03/28 00:36:25;;;;;;;;;;;;;;;;;;5061639;28;20328;-68
2023/03/28 00:38:52;;;;;;;;;;;;;;;;;;5070226;28;20328;-67
2023/03/28 00:41:20;;;;;;;;;;;;;;;;;;5067222;28;19986;-68
2023/03/28 00:43:47;;;;;;;;;;;;;;;;;;5067747;28;19928;-67
2023/03/28 00:46:14;;;;;;;;;;;;;;;;;;5070825;28;19924;-68
2023/03/28 00:48:41;;;;;;;;;;;;;;;;;;5069429;28;19928;-68
2023/03/28 00:51:08;;;;;;;;;;;;;;;;;;5069025;28;19972;-67
2023/03/28 00:53:35;;;;;;;;;;;;;;;;;;5068175;28;20315;-67
2023/03/28 00:56:03;;;;;;;;;;;;;;;;;;5067958;28;19970;-68
2023/03/28 00:58:30;;;;;;;;;;;;;;;;;;5064717;28;19986;-68
2023/03/28 01:00:57;;;;;;;;;;;;;;;;;;5069611;28;20272;-68
2023/03/28 01:03:26;;;;;;;;;;;;;;;;;;5068394;28;19924;-68
2023/03/28 01:05:53;;;;;;;;;;;;;;;;;;5062609;28;19939;-68
2023/03/28 01:08:20;;;;;;;;;;;;;;;;;;5067421;28;19924;-69
2023/03/28 01:10:47;;;;;;;;;;;;;;;;;;5064484;28;21503;-68
2023/03/28 01:13:14;;;;;;;;;;;;;;;;;;5073328;28;19936;-68
2023/03/28 01:15:41;;;;;;;;;;;;;;;;;;5073419;28;20020;-68
2023/03/28 01:18:10;;;;;;;;;;;;;;;;;;5070077;28;19928;-68
2023/03/28 01:20:38;;;;;;;;;;;;;;;;;;5069153;28;20298;-68
2023/03/28 01:23:05;;;;;;;;;;;;;;;;;;5073021;28;19924;-68
2023/03/28 01:25:32;;;;;;;;;;;;;;;;;;5071367;28;19994;-68
2023/03/28 01:28:01;;;;;;;;;;;;;;;;;;5072322;28;19924;-68
2023/03/28 01:30:28;;;;;;;;;;;;;;;;;;5073972;28;20015;-68
2023/03/28 01:32:55;;;;;;;;;;;;;;;;;;5071023;28;19925;-68
2023/03/28 01:35:22;;;;;;;;;;;;;;;;;;5070604;28;19924;-68
2023/03/28 01:37:49;;;;;;;;;;;;;;;;;;5071938;28;19928;-69
2023/03/28 01:40:16;;;;;;;;;;;;;;;;;;5073039;28;19929;-68
2023/03/28 01:42:43;;;;;;;;;;;;;;;;;;5071742;28;19924;-68
2023/03/28 01:45:10;;;;;;;;;;;;;;;;;;5071330;28;19971;-68
2023/03/28 01:47:37;;;;;;;;;;;;;;;;;;5069463;28;20003;-68
2023/03/28 01:50:04;;;;;;;;;;;;;;;;;;5072304;28;20387;-68
2023/03/28 01:52:31;;;;;;;;;;;;;;;;;;5071070;28;20371;-68
2023/03/28 01:54:58;;;;;;;;;;;;;;;;;;5071431;28;19924;-68
2023/03/28 01:57:25;;;;;;;;;;;;;;;;;;5071026;28;20392;-68
2023/03/28 01:59:52;;;;;;;;;;;;;;;;;;5067975;28;20011;-68
2023/03/28 02:02:19;;;;;;;;;;;;;;;;;;5069757;28;19928;-68
2023/03/28 02:07:27;;;;;;;;;;;;;;;;;;5069456;28;19925;-68
2023/03/28 02:09:54;;;;;;;;;;;;;;;;;;5071574;28;20401;-68
2023/03/28 02:12:22;;;;;;;;;;;;;;;;;;5070953;28;19925;-68
2023/03/28 02:14:49;;;;;;;;;;;;;;;;;;5068247;28;19925;-67
2023/03/28 02:17:16;;;;;;;;;;;;;;;;;;5071693;28;20025;-68
2023/03/28 02:19:44;;;;;;;;;;;;;;;;;;5069477;28;20380;-67
2023/03/28 02:22:11;;;;;;;;;;;;;;;;;;5070760;28;19924;-67
2023/03/28 02:24:38;;;;;;;;;;;;;;;;;;5072323;28;19924;-68
2023/03/28 02:27:07;;;;;;;;;;;;;;;;;;5072664;28;19986;-68
2023/03/28 02:29:34;;;;;;;;;;;;;;;;;;5069934;28;20319;-67
2023/03/28 02:32:01;;;;;;;;;;;;;;;;;;5071504;28;20015;-68
2023/03/28 02:34:28;;;;;;;;;;;;;;;;;;5071520;28;19979;-68
2023/03/28 02:36:55;;;;;;;;;;;;;;;;;;5070412;28;20405;-68
2023/03/28 02:39:22;;;;;;;;;;;;;;;;;;5070077;28;19925;-68
2023/03/28 02:41:49;;;;;;;;;;;;;;;;;;5069355;28;20023;-68
2023/03/28 02:44:16;;;;;;;;;;;;;;;;;;5070196;28;19933;-68
2023/03/28 02:46:43;;;;;;;;;;;;;;;;;;5064397;28;19974;-68
2023/03/28 02:49:10;;;;;;;;;;;;;;;;;;5071259;28;19925;-68
2023/03/28 02:51:39;;;;;;;;;;;;;;;;;;5070970;28;19928;-66
2023/03/28 02:54:06;;;;;;;;;;;;;;;;;;5071495;28;19924;-66
2023/03/28 02:56:35;;;;;;;;;;;;;;;;;;5068329;28;19932;-66
2023/03/28 02:59:02;;;;;;;;;;;;;;;;;;5069354;28;20457;-67
2023/03/28 03:01:29;;;;;;;;;;;;;;;;;;5061692;28;19925;-67
2023/03/28 03:03:56;;;;;;;;;;;;;;;;;;5071291;28;19932;-67
2023/03/28 03:06:24;;;;;;;;;;;;;;;;;;5067518;28;21496;-68
2023/03/28 03:08:51;;;;;;;;;;;;;;;;;;5071319;28;20326;-67
2023/03/28 03:11:18;;;;;;;;;;;;;;;;;;5072384;28;19924;-68
2023/03/28 03:13:45;;;;;;;;;;;;;;;;;;5072491;28;19925;-68
2023/03/28 03:16:12;;;;;;;;;;;;;;;;;;5070679;28;19925;-68
2023/03/28 03:18:39;;;;;;;;;;;;;;;;;;5071644;28;20457;-68
2023/03/28 03:21:06;;;;;;;;;;;;;;;;;;5067909;28;19931;-68
2023/03/28 03:23:33;;;;;;;;;;;;;;;;;;5071992;28;19930;-68
2023/03/28 03:26:00;;;;;;;;;;;;;;;;;;5067836;28;19925;-68
2023/03/28 03:28:27;;;;;;;;;;;;;;;;;;5072086;28;19925;-68
2023/03/28 03:30:54;;;;;;;;;;;;;;;;;;5069245;28;19971;-68
2023/03/28 03:33:21;;;;;;;;;;;;;;;;;;5071469;28;20375;-68
2023/03/28 03:35:48;;;;;;;;;;;;;;;;;;5066940;28;19987;-69
2023/03/28 03:38:15;;;;;;;;;;;;;;;;;;5069543;28;19928;-68
2023/03/28 03:40:42;;;;;;;;;;;;;;;;;;5070949;28;20335;-68
2023/03/28 03:43:09;;;;;;;;;;;;;;;;;;5072024;28;19936;-67
2023/03/28 03:45:39;;;;;;;;;;;;;;;;;;5070378;28;19925;-68
2023/03/28 03:48:06;;;;;;;;;;;;;;;;;;5066557;28;19966;-68
2023/03/28 03:50:33;;;;;;;;;;;;;;;;;;5069098;28;20277;-68
2023/03/28 03:53:00;;;;;;;;;;;;;;;;;;5065348;28;19924;-68
2023/03/28 03:55:33;;;;;;;;;;;;;;;;;;5066827;28;20379;-68
2023/03/28 03:58:01;;;;;;;;;;;;;;;;;;5064275;28;19930;-68
2023/03/28 04:00:28;;;;;;;;;;;;;;;;;;5069147;28;20307;-68
2023/03/28 04:02:55;;;;;;;;;;;;;;;;;;5071304;28;19924;-68
2023/03/28 04:05:22;;;;;;;;;;;;;;;;;;5059748;28;19968;-68
2023/03/28 04:07:49;;;;;;;;;;;;;;;;;;5068576;28;19928;-68
2023/03/28 04:10:16;;;;;;;;;;;;;;;;;;5071035;28;19925;-68
2023/03/28 04:12:43;;;;;;;;;;;;;;;;;;5063060;28;19960;-68
2023/03/28 04:15:10;;;;;;;;;;;;;;;;;;5069873;28;20014;-68
2023/03/28 04:17:40;;;;;;;;;;;;;;;;;;5067601;28;20011;-68
2023/03/28 04:20:10;;;;;;;;;;;;;;;;;;5069080;28;19925;-68
2023/03/28 04:22:37;;;;;;;;;;;;;;;;;;5068317;28;19955;-67
2023/03/28 04:25:04;;;;;;;;;;;;;;;;;;5062142;28;19928;-68
2023/03/28 04:27:31;;;;;;;;;;;;;;;;;;5069502;28;19924;-67
2023/03/28 04:29:59;;;;;;;;;;;;;;;;;;5070540;28;22562;-67
2023/03/28 04:32:26;;;;;;;;;;;;;;;;;;5067065;28;19931;-67
2023/03/28 04:34:53;;;;;;;;;;;;;;;;;;5068064;28;20371;-68
2023/03/28 04:37:20;;;;;;;;;;;;;;;;;;5066948;28;19931;-67
2023/03/28 04:39:47;;;;;;;;;;;;;;;;;;5067236;28;20333;-67
2023/03/28 04:42:14;;;;;;;;;;;;;;;;;;5068454;28;19939;-68
2023/03/28 04:44:41;;;;;;;;;;;;;;;;;;5068149;28;19932;-68
2023/03/28 04:47:10;;;;;;;;;;;;;;;;;;5068192;28;19999;-67
2023/03/28 04:49:37;;;;;;;;;;;;;;;;;;5066490;28;19925;-69
2023/03/28 04:52:04;;;;;;;;;;;;;;;;;;5069485;28;19925;-69
2023/03/28 04:54:31;;;;;;;;;;;;;;;;;;5068818;28;19925;-68
2023/03/28 04:56:58;;;;;;;;;;;;;;;;;;5070307;28;19924;-67
2023/03/28 04:59:25;;;;;;;;;;;;;;;;;;5066320;28;20471;-67
2023/03/28 05:01:52;;;;;;;;;;;;;;;;;;5066221;28;19978;-67
2023/03/28 05:04:20;;;;;;;;;;;;;;;;;;5070711;28;19975;-67
2023/03/28 05:06:47;;;;;;;;;;;;;;;;;;5068886;28;19978;-68
2023/03/28 05:09:15;;;;;;;;;;;;;;;;;;5069079;28;20051;-68
2023/03/28 05:11:42;;;;;;;;;;;;;;;;;;5069523;28;19932;-68
2023/03/28 05:14:09;;;;;;;;;;;;;;;;;;5065059;28;20011;-68
2023/03/28 05:16:36;;;;;;;;;;;;;;;;;;5061348;28;20019;-68
2023/03/28 05:19:03;;;;;;;;;;;;;;;;;;5060928;28;19976;-69
2023/03/28 05:21:30;;;;;;;;;;;;;;;;;;5057458;28;19933;-68
2023/03/28 05:23:57;;;;;;;;;;;;;;;;;;5066849;28;20019;-68
2023/03/28 05:26:24;;;;;;;;;;;;;;;;;;5061894;28;20003;-69
2023/03/28 05:28:51;;;;;;;;;;;;;;;;;;5067598;28;20367;-68
2023/03/28 05:31:19;;;;;;;;;;;;;;;;;;5062507;28;19954;-70
2023/03/28 05:33:46;;;;;;;;;;;;;;;;;;5060590;28;19924;-68
2023/03/28 05:36:13;;;;;;;;;;;;;;;;;;5059983;28;20019;-68
2023/03/28 05:38:40;;;;;;;;;;;;;;;;;;5056946;28;19975;-69
2023/03/28 05:41:07;;;;;;;;;;;;;;;;;;5062943;28;19932;-68
2023/03/28 05:43:34;;;;;;;;;;;;;;;;;;5056937;28;20024;-69
2023/03/28 05:46:01;;;;;;;;;;;;;;;;;;5060158;28;19933;-69
2023/03/28 05:48:28;;;;;;;;;;;;;;;;;;5063779;28;20011;-69
2023/03/28 05:50:55;;;;;;;;;;;;;;;;;;5063486;28;19924;-69
2023/03/28 05:53:22;;;;;;;;;;;;;;;;;;5067577;28;20276;-69
2023/03/28 05:55:49;;;;;;;;;;;;;;;;;;5066846;28;19931;-69
2023/03/28 05:58:16;;;;;;;;;;;;;;;;;;5068581;28;19925;-70
2023/03/28 06:00:43;;;;;;;;;;;;;;;;;;5061849;28;19933;-70
2023/03/28 06:03:10;;;;;;;;;;;;;;;;;;5065911;28;19933;-70
2023/03/28 06:05:37;;;;;;;;;;;;;;;;;;5069307;28;20019;-70
2023/03/28 06:08:04;;;;;;;;;;;;;;;;;;5070513;28;20011;-69
2023/03/28 06:10:31;;;;;;;;;;;;;;;;;;5068456;28;19932;-69
2023/03/28 06:12:58;;;;;;;;;;;;;;;;;;5067535;28;19967;-69
2023/03/28 06:15:26;;;;;;;;;;;;;;;;;;5070274;28;19929;-69
2023/03/28 06:17:53;;;;;;;;;;;;;;;;;;5068820;28;20477;-69
2023/03/28 06:20:20;;;;;;;;;;;;;;;;;;5067241;28;19982;-69
2023/03/28 06:22:47;;;;;;;;;;;;;;;;;;5069604;28;19964;-70
2023/03/28 06:25:14;;;;;;;;;;;;;;;;;;5069389;28;19924;-69
2023/03/28 06:27:41;;;;;;;;;;;;;;;;;;5064336;28;19928;-70
2023/03/28 06:30:08;;;;;;;;;;;;;;;;;;5069400;28;19924;-69
2023/03/28 06:32:35;;;;;;;;;;;;;;;;;;5062800;28;20552;-69
2023/03/28 06:35:02;;;;;;;;;;;;;;;;;;5065002;28;19924;-70
2023/03/28 06:37:29;;;;;;;;;;;;;;;;;;5071439;28;19924;-70
2023/03/28 06:39:56;;;;;;;;;;;;;;;;;;5073247;28;20007;-69
2023/03/28 06:42:23;;;;;;;;;;;;;;;;;;5072122;28;19932;-71
2023/03/28 06:44:50;;;;;;;;;;;;;;;;;;5066854;28;19924;-70
2023/03/28 06:47:17;;;;;;;;;;;;;;;;;;5060596;28;20419;-70
2023/03/28 06:49:44;;;;;;;;;;;;;;;;;;5070228;28;19964;-70
2023/03/28 06:52:11;;;;;;;;;;;;;;;;;;5072222;28;19946;-70
2023/03/28 06:54:38;;;;;;;;;;;;;;;;;;5070026;28;20450;-71
2023/03/28 06:57:05;;;;;;;;;;;;;;;;;;5071815;28;19991;-70
2023/03/28 06:59:41;;;;;;;;;;;;;;;;;;5072075;28;19924;-70
2023/03/28 07:02:08;;;;;;;;;;;;;;;;;;5068618;28;19924;-69
2023/03/28 07:04:36;;;;;;;;;;;;;;;;;;5070931;28;20007;-70
2023/03/28 07:07:03;;;;;;;;;;;;;;;;;;5072189;28;20387;-69
2023/03/28 07:09:30;;;;;;;;;;;;;;;;;;5070941;28;19928;-70
2023/03/28 07:11:57;;;;;;;;;;;;;;;;;;5071456;28;20008;-71
2023/03/28 07:14:24;;;;;;;;;;;;;;;;;;5065207;28;20102;-70
2023/03/28 07:16:51;;;;;;;;;;;;;;;;;;5066390;28;20004;-70
2023/03/28 07:19:18;;;;;;;;;;;;;;;;;;5066962;28;20042;-70
2023/03/28 07:21:45;;;;;;;;;;;;;;;;;;5066224;28;19924;-71
2023/03/28 07:24:12;;;;;;;;;;;;;;;;;;5060089;28;20345;-70
2023/03/28 07:26:39;;;;;;;;;;;;;;;;;;5063855;28;20298;-70
2023/03/28 07:29:06;;;;;;;;;;;;;;;;;;5066991;28;19924;-69
2023/03/28 07:31:33;;;;;;;;;;;;;;;;;;5065835;28;20015;-72
2023/03/28 07:34:00;;;;;;;;;;;;;;;;;;5068251;28;19932;-70
2023/03/28 07:36:29;;;;;;;;;;;;;;;;;;5061223;28;20127;-71
2023/03/28 07:38:56;;;;;;;;;;;;;;;;;;5066291;28;19928;-70
2023/03/28 07:41:23;;;;;;;;;;;;;;;;;;5066959;28;20421;-69
2023/03/28 07:43:52;;;;;;;;;;;;;;;;;;5059167;28;20008;-69
2023/03/28 07:46:19;;;;;;;;;;;;;;;;;;5064145;28;19974;-68
2023/03/28 07:48:46;;;;;;;;;;;;;;;;;;5066284;28;19932;-68
2023/03/28 07:51:13;;;;;;;;;;;;;;;;;;5063928;28;19967;-67
2023/03/28 07:53:40;;;;;;;;;;;;;;;;;;5069250;28;19954;-67
2023/03/28 07:56:10;;;;;;;;;;;;;;;;;;5062979;28;19928;-68
2023/03/28 07:58:37;;;;;;;;;;;;;;;;;;5062095;28;19928;-69
2023/03/28 08:01:10;;;;;;;;;;;;;;;;;;5066204;28;19977;-69
2023/03/28 08:03:37;;;;;;;;;;;;;;;;;;5064702;28;20371;-68
2023/03/28 08:06:04;;;;;;;;;;;;;;;;;;5066135;28;20361;-68
2023/03/28 08:08:31;;;;;;;;;;;;;;;;;;5060131;28;19988;-67
2023/03/28 08:10:58;;;;;;;;;;;;;;;;;;5063209;28;19924;-69
2023/03/28 08:13:25;;;;;;;;;;;;;;;;;;5063050;28;19925;-70
2023/03/28 08:15:52;;;;;;;;;;;;;;;;;;5064323;28;20030;-71
2023/03/28 08:18:20;;;;;;;;;;;;;;;;;;5062636;28;19935;-70
2023/03/28 08:20:47;;;;;;;;;;;;;;;;;;5064744;28;19928;-70
2023/03/28 08:23:14;;;;;;;;;;;;;;;;;;5064701;28;20326;-71
2023/03/28 08:25:41;;;;;;;;;;;;;;;;;;5065518;28;20391;-71
2023/03/28 08:28:10;;;;;;;;;;;;;;;;;;5064953;28;20749;-70
2023/03/28 08:30:37;;;;;;;;;;;;;;;;;;5060983;28;19929;-69
2023/03/28 08:33:04;;;;;;;;;;;;;;;;;;5065148;28;20023;-69
2023/03/28 08:35:31;;;;;;;;;;;;;;;;;;5061895;28;20283;-69
2023/03/28 08:37:58;;;;;;;;;;;;;;;;;;5064303;28;20020;-70
2023/03/28 08:40:25;;;;;;;;;;;;;;;;;;5063535;28;19952;-69
2023/03/28 08:42:53;;;;;;;;;;;;;;;;;;5060634;28;19970;-69
2023/03/28 08:45:20;;;;;;;;;;;;;;;;;;5065255;28;20400;-69
2023/03/28 08:47:47;;;;;;;;;;;;;;;;;;5065417;28;19931;-69
2023/03/28 08:50:14;;;;;;;;;;;;;;;;;;5064639;28;19947;-68
2023/03/28 08:52:41;;;;;;;;;;;;;;;;;;5064699;28;19948;-69
2023/03/28 08:55:09;;;;;;;;;;;;;;;;;;5063590;28;19924;-69
2023/03/28 08:57:36;;;;;;;;;;;;;;;;;;5065764;28;20430;-70
2023/03/28 09:00:07;;;;;;;;;;;;;;;;;;5063169;28;19971;-70
2023/03/28 09:02:34;;;;;;;;;;;;;;;;;;5061053;28;20061;-69
2023/03/28 09:05:01;;;;;;;;;;;;;;;;;;5058830;28;19954;-69
2023/03/28 09:07:29;;;;;;;;;;;;;;;;;;5062931;28;20019;-70
2023/03/28 09:09:57;;;;;;;;;;;;;;;;;;5062703;28;19936;-69
2023/03/28 09:12:25;;;;;;;;;;;;;;;;;;5067584;28;19925;-69
2023/03/28 09:14:52;;;;;;;;;;;;;;;;;;5061771;28;20409;-69
2023/03/28 09:17:19;;;;;;;;;;;;;;;;;;5054475;28;19928;-68
2023/03/28 09:19:46;;;;;;;;;;;;;;;;;;5055778;28;19932;-69
2023/03/28 09:22:13;;;;;;;;;;;;;;;;;;5062307;28;20032;-69
2023/03/28 09:24:40;;;;;;;;;;;;;;;;;;5062048;28;19924;-70
2023/03/28 09:27:07;;;;;;;;;;;;;;;;;;5065190;28;19964;-69
2023/03/28 09:29:34;;;;;;;;;;;;;;;;;;5066161;28;19954;-71
2023/03/28 09:32:01;;;;;;;;;;;;;;;;;;5067515;28;19924;-70
2023/03/28 09:34:29;;;;;;;;;;;;;;;;;;5060940;28;19933;-69
2023/03/28 09:36:56;;;;;;;;;;;;;;;;;;5063345;28;19932;-70
2023/03/28 09:39:23;;;;;;;;;;;;;;;;;;5063655;28;19932;-71
2023/03/28 09:41:51;;;;;;;;;;;;;;;;;;5064515;28;19931;-69
2023/03/28 09:44:18;;;;;;;;;;;;;;;;;;5068160;28;20400;-70
2023/03/28 09:46:45;;;;;;;;;;;;;;;;;;5063042;28;19931;-69
2023/03/28 09:49:12;;;;;;;;;;;;;;;;;;5066516;28;19932;-69
2023/03/28 09:51:39;;;;;;;;;;;;;;;;;;5067461;28;19932;-70
2023/03/28 09:54:16;;;;;;;;;;;;;;;;;;5063434;28;19928;-70
2023/03/28 09:56:43;;;;;;;;;;;;;;;;;;5064178;28;20410;-70
2023/03/28 09:59:10;;;;;;;;;;;;;;;;;;5062534;28;20371;-69
2023/03/28 10:01:37;;;;;;;;;;;;;;;;;;5062734;28;19936;-69
2023/03/28 10:04:04;;;;;;;;;;;;;;;;;;5062480;28;20391;-68
2023/03/28 10:06:31;;;;;;;;;;;;;;;;;;5067923;28;20475;-70
2023/03/28 10:08:58;;;;;;;;;;;;;;;;;;5065075;28;19928;-74
2023/03/28 10:11:26;;;;;;;;;;;;;;;;;;5064707;28;19924;-74
2023/03/28 10:13:54;;;;;;;;;;;;;;;;;;5067353;28;20251;-77
2023/03/28 10:16:21;;;;;;;;;;;;;;;;;;5065364;28;19971;-71
2023/03/28 10:18:48;;;;;;;;;;;;;;;;;;5064357;28;20024;-70
2023/03/28 10:21:15;;;;;;;;;;;;;;;;;;5068169;28;19986;-70
2023/03/28 10:23:42;;;;;;;;;;;;;;;;;;5063925;28;19932;-70
2023/03/28 10:26:10;;;;;;;;;;;;;;;;;;5066885;28;19978;-71
2023/03/28 10:28:37;;;;;;;;;;;;;;;;;;5062383;28;19924;-70
2023/03/28 10:31:03;;;;;;;;;;;;;;;;;;5070599;28;19924;-72
2023/03/28 10:33:30;;;;;;;;;;;;;;;;;;5066895;28;20389;-69
2023/03/28 10:35:57;;;;;;;;;;;;;;;;;;5068994;28;20406;-70
2023/03/28 10:38:24;;;;;;;;;;;;;;;;;;5072690;28;20027;-71
2023/03/28 10:40:52;;;;;;;;;;;;;;;;;;5057862;28;19966;-70
2023/03/28 10:43:19;;;;;;;;;;;;;;;;;;5060735;28;19978;-72
2023/03/28 10:45:46;;;;;;;;;;;;;;;;;;5065955;28;20006;-71
2023/03/28 10:48:13;;;;;;;;;;;;;;;;;;5061491;28;19993;-70
2023/03/28 10:50:40;;;;;;;;;;;;;;;;;;5060283;28;20435;-69
2023/03/28 10:53:09;;;;;;;;;;;;;;;;;;5064605;28;20477;-70
2023/03/28 10:55:37;;;;;;;;;;;;;;;;;;5066471;28;19924;-71
2023/03/28 10:58:04;;;;;;;;;;;;;;;;;;5060507;28;20346;-70
2023/03/28 11:00:31;;;;;;;;;;;;;;;;;;5069245;28;20548;-70
2023/03/28 11:02:58;;;;;;;;;;;;;;;;;;5065431;28;19931;-69
2023/03/28 11:05:27;;;;;;;;;;;;;;;;;;5066118;28;19952;-71
2023/03/28 11:07:54;;;;;;;;;;;;;;;;;;5064024;28;19951;-70
2023/03/28 11:10:21;;;;;;;;;;;;;;;;;;5067094;28;19930;-69
2023/03/28 11:12:48;;;;;;;;;;;;;;;;;;5063676;28;19925;-71
2023/03/28 11:15:15;;;;;;;;;;;;;;;;;;5060968;28;19924;-71
2023/03/28 11:17:42;;;;;;;;;;;;;;;;;;5062865;28;19932;-72
2023/03/28 11:20:16;;;;;;;;;;;;;;;;;;5062252;28;20665;-70
2023/03/28 11:22:43;;;;;;;;;;;;;;;;;;5066910;28;19932;-71
2023/03/28 11:25:10;;;;;;;;;;;;;;;;;;5066908;28;20016;-73
2023/03/28 11:27:37;;;;;;;;;;;;;;;;;;5065504;28;20380;-73
2023/03/28 11:30:04;;;;;;;;;;;;;;;;;;5056862;28;19936;-73
2023/03/28 11:32:31;;;;;;;;;;;;;;;;;;5069188;28;19925;-69
2023/03/28 11:34:58;;;;;;;;;;;;;;;;;;5065054;28;19971;-73
2023/03/28 11:37:25;;;;;;;;;;;;;;;;;;5069283;28;20381;-73
2023/03/28 11:39:52;;;;;;;;;;;;;;;;;;5070989;28;19978;-71
2023/03/28 11:42:20;;;;;;;;;;;;;;;;;;5070869;28;20012;-71
2023/03/28 11:44:47;;;;;;;;;;;;;;;;;;5070137;28;19936;-70
2023/03/28 11:47:14;;;;;;;;;;;;;;;;;;5068120;28;20435;-72
2023/03/28 11:49:41;;;;;;;;;;;;;;;;;;5065907;28;20383;-71
2023/03/28 11:52:08;;;;;;;;;;;;;;;;;;5066875;28;19930;-72
2023/03/28 11:54:35;;;;;;;;;;;;;;;;;;5064195;28;20023;-71
2023/03/28 11:57:02;;;;;;;;;;;;;;;;;;5063037;28;20587;-71
2023/03/28 11:59:29;;;;;;;;;;;;;;;;;;5071857;28;20291;-72
2023/03/28 12:01:56;;;;;;;;;;;;;;;;;;5063745;28;20409;-71
2023/03/28 12:04:24;;;;;;;;;;;;;;;;;;5072021;28;19928;-72
2023/03/28 12:06:52;;;;;;;;;;;;;;;;;;5067442;28;19928;-68
2023/03/28 12:09:19;;;;;;;;;;;;;;;;;;5062863;28;20402;-68
2023/03/28 12:11:46;;;;;;;;;;;;;;;;;;5064849;28;19932;-68
2023/03/28 12:14:14;;;;;;;;;;;;;;;;;;5063705;28;20276;-67
2023/03/28 12:16:40;;;;;;;;;;;;;;;;;;5068895;28;19932;-71
2023/03/28 12:19:07;;;;;;;;;;;;;;;;;;5063274;28;19931;-70
2023/03/28 12:21:34;;;;;;;;;;;;;;;;;;5065435;28;20034;-70
2023/03/28 12:24:03;;;;;;;;;;;;;;;;;;5068271;28;19924;-69
2023/03/28 12:26:30;;;;;;;;;;;;;;;;;;5070045;28;20322;-70
2023/03/28 12:28:57;;;;;;;;;;;;;;;;;;5064116;28;19970;-71
2023/03/28 12:31:25;;;;;;;;;;;;;;;;;;5062929;28;19924;-70
2023/03/28 12:33:52;;;;;;;;;;;;;;;;;;5067806;28;19925;-69
2023/03/28 12:36:19;;;;;;;;;;;;;;;;;;5071154;28;20519;-71
2023/03/28 12:38:46;;;;;;;;;;;;;;;;;;5069121;28;19928;-71
2023/03/28 12:41:13;;;;;;;;;;;;;;;;;;5068283;28;20003;-71
2023/03/28 12:43:40;;;;;;;;;;;;;;;;;;5064743;28;19925;-71
2023/03/28 12:46:07;;;;;;;;;;;;;;;;;;5064125;28;19924;-71
2023/03/28 12:48:34;;;;;;;;;;;;;;;;;;5070442;28;19932;-71
2023/03/28 12:51:01;;;;;;;;;;;;;;;;;;5070378;28;20065;-70
2023/03/28 12:53:29;;;;;;;;;;;;;;;;;;5065885;28;20434;-71
2023/03/28 12:55:56;;;;;;;;;;;;;;;;;;5067273;28;20295;-70
2023/03/28 12:58:23;;;;;;;;;;;;;;;;;;5068831;28;19928;-71
2023/03/28 13:00:50;;;;;;;;;;;;;;;;;;5068417;28;19931;-71
2023/03/28 13:03:18;;;;;;;;;;;;;;;;;;5067626;28;19924;-72
2023/03/28 13:05:45;;;;;;;;;;;;;;;;;;5070368;28;19925;-69
2023/03/28 13:08:12;;;;;;;;;;;;;;;;;;5071551;28;20606;-69
2023/03/28 13:10:39;;;;;;;;;;;;;;;;;;5075407;28;20007;-70
2023/03/28 13:13:07;;;;;;;;;;;;;;;;;;5069416;28;20305;-69
2023/03/28 13:15:34;;;;;;;;;;;;;;;;;;5073509;28;19935;-69
2023/03/28 13:18:01;;;;;;;;;;;;;;;;;;5073936;28;19925;-70
2023/03/28 13:20:28;;;;;;;;;;;;;;;;;;5058947;28;19925;-69
2023/03/28 13:22:59;;;;;;;;;;;;;;;;;;5073668;28;20018;-69
2023/03/28 13:25:26;;;;;;;;;;;;;;;;;;5070121;28;19931;-70
2023/03/28 13:27:53;;;;;;;;;;;;;;;;;;5070098;28;19974;-71
2023/03/28 13:30:23;;;;;;;;;;;;;;;;;;5073368;28;19962;-73
2023/03/28 13:32:50;;;;;;;;;;;;;;;;;;5074231;28;19941;-71
2023/03/28 13:35:17;;;;;;;;;;;;;;;;;;5067081;28;19954;-71
2023/03/28 13:37:44;;;;;;;;;;;;;;;;;;5073339;28;20003;-71
2023/03/28 13:40:11;;;;;;;;;;;;;;;;;;5067764;28;19924;-71
2023/03/28 13:42:38;;;;;;;;;;;;;;;;;;5059313;28;20003;-71
2023/03/28 13:45:05;;;;;;;;;;;;;;;;;;5071791;28;19925;-72
2023/03/28 13:47:32;;;;;;;;;;;;;;;;;;5068529;28;19929;-71
2023/03/28 13:49:59;;;;;;;;;;;;;;;;;;5072220;28;20307;-71
2023/03/28 13:52:26;;;;;;;;;;;;;;;;;;5069431;28;20314;-70
2023/03/28 13:54:53;;;;;;;;;;;;;;;;;;5073662;28;20415;-71
2023/03/28 13:57:20;;;;;;;;;;;;;;;;;;5068833;28;20399;-71
2023/03/28 13:59:48;;;;;;;;;;;;;;;;;;5072171;28;20080;-75
2023/03/28 14:02:17;;;;;;;;;;;;;;;;;;5075564;28;19924;-73
2023/03/28 14:04:44;;;;;;;;;;;;;;;;;;5076238;28;19932;-74
2023/03/28 14:07:13;;;;;;;;;;;;;;;;;;5071846;28;20015;-74
2023/03/28 14:09:40;;;;;;;;;;;;;;;;;;5076508;28;19924;-71
2023/03/28 14:12:07;;;;;;;;;;;;;;;;;;5074631;28;19924;-71
2023/03/28 14:14:34;;;;;;;;;;;;;;;;;;5073601;28;20443;-71
2023/03/28 14:17:01;;;;;;;;;;;;;;;;;;5070386;28;20046;-70
2023/03/28 14:19:28;;;;;;;;;;;;;;;;;;5072258;28;20003;-69
2023/03/28 14:21:55;;;;;;;;;;;;;;;;;;5071675;28;20291;-70
2023/03/28 14:24:22;;;;;;;;;;;;;;;;;;5070082;28;19928;-72
2023/03/28 14:26:49;;;;;;;;;;;;;;;;;;5070862;28;19925;-71
2023/03/28 14:29:16;;;;;;;;;;;;;;;;;;5069006;28;20391;-69
2023/03/28 14:31:44;;;;;;;;;;;;;;;;;;5070654;28;22008;-70
2023/03/28 14:34:12;;;;;;;;;;;;;;;;;;5072918;28;19933;-69
2023/03/28 14:36:40;;;;;;;;;;;;;;;;;;5070318;28;19943;-71
2023/03/28 14:39:09;;;;;;;;;;;;;;;;;;5071900;28;19925;-71
2023/03/28 14:41:36;;;;;;;;;;;;;;;;;;5056542;28;19950;-69
2023/03/28 14:44:03;;;;;;;;;;;;;;;;;;5072428;28;20012;-70
2023/03/28 14:46:30;;;;;;;;;;;;;;;;;;5072474;28;20294;-70
2023/03/28 14:48:58;;;;;;;;;;;;;;;;;;5070141;28;20302;-70
2023/03/28 14:51:25;;;;;;;;;;;;;;;;;;5072250;28;19924;-70
2023/03/28 14:53:52;;;;;;;;;;;;;;;;;;5070862;28;19924;-70
2023/03/28 14:56:19;;;;;;;;;;;;;;;;;;5070752;28;19968;-71
2023/03/28 14:58:46;;;;;;;;;;;;;;;;;;5070699;28;19972;-71
2023/03/28 15:01:13;;;;;;;;;;;;;;;;;;5067337;28;19925;-69
2023/03/28 15:03:40;;;;;;;;;;;;;;;;;;5064820;28;19924;-70
2023/03/28 15:06:08;;;;;;;;;;;;;;;;;;5066853;28;19932;-71
2023/03/28 15:08:36;;;;;;;;;;;;;;;;;;5064993;28;19968;-72
2023/03/28 15:11:04;;;;;;;;;;;;;;;;;;5070695;28;19993;-72
2023/03/28 15:13:35;;;;;;;;;;;;;;;;;;5083439;22;20017;-71
2023/03/28 15:16:04;;;;;;;;;;;;;;;;;;5096029;28;19959;-71
2023/03/28 15:18:32;;;;;;;;;;;;;;;;;;5087541;28;19928;-71
2023/03/28 15:20:59;;;;;;;;;;;;;;;;;;5087627;28;19931;-72
2023/03/28 15:23:27;;;;;;;;;;;;;;;;;;5086648;28;19985;-71
2023/03/28 15:25:54;;;;;;;;;;;;;;;;;;5086763;28;19924;-69
2023/03/28 15:28:21;;;;;;;;;;;;;;;;;;5082341;28;19924;-70
2023/03/28 15:30:48;;;;;;;;;;;;;;;;;;5082525;28;20019;-71
2023/03/28 15:33:15;;;;;;;;;;;;;;;;;;5080735;28;19944;-72
2023/03/28 15:35:42;;;;;;;;;;;;;;;;;;5082761;28;19931;-73
2023/03/28 15:38:10;;;;;;;;;;;;;;;;;;5086193;28;19931;-75
2023/03/28 15:40:37;;;;;;;;;;;;;;;;;;5087898;28;19924;-73
2023/03/28 15:43:05;;;;;;;;;;;;;;;;;;5087118;28;19924;-72
2023/03/28 15:45:32;;;;;;;;;;;;;;;;;;5083446;28;20295;-73
2023/03/28 15:47:59;;;;;;;;;;;;;;;;;;5080245;28;19936;-72
2023/03/28 15:50:26;;;;;;;;;;;;;;;;;;5080567;28;20375;-73
2023/03/28 15:52:53;;;;;;;;;;;;;;;;;;5081176;28;19928;-73
2023/03/28 15:55:20;;;;;;;;;;;;;;;;;;5081987;28;19967;-74
2023/03/28 15:57:47;;;;;;;;;;;;;;;;;;5087321;28;20011;-72
2023/03/28 16:00:14;;;;;;;;;;;;;;;;;;5086707;28;19928;-72
2023/03/28 16:02:42;;;;;;;;;;;;;;;;;;5077514;28;20387;-79
2023/03/28 16:05:09;;;;;;;;;;;;;;;;;;5090431;28;19931;-78
2023/03/28 16:07:37;;;;;;;;;;;;;;;;;;5083511;28;19931;-74
2023/03/28 16:10:04;;;;;;;;;;;;;;;;;;5079622;28;20379;-73
2023/03/28 16:12:34;;;;;;;;;;;;;;;;;;5086495;28;19954;-74
2023/03/28 16:15:01;;;;;;;;;;;;;;;;;;5087117;28;19924;-74
2023/03/28 16:17:28;;;;;;;;;;;;;;;;;;5085117;28;20015;-72
2023/03/28 16:19:55;;;;;;;;;;;;;;;;;;5083437;28;19924;-74
2023/03/28 16:22:22;;;;;;;;;;;;;;;;;;5080724;28;19929;-74
2023/03/28 16:24:49;;;;;;;;;;;;;;;;;;5084352;28;19931;-79
2023/03/28 16:27:16;;;;;;;;;;;;;;;;;;5078640;28;19924;-81
2023/03/28 16:29:50;;;;;;;;;;;;;;;;;;5082476;28;19931;-81
2023/03/28 16:32:17;;;;;;;;;;;;;;;;;;5084563;28;19928;-79
2023/03/28 16:34:44;;;;;;;;;;;;;;;;;;5083030;28;20022;-81
2023/03/28 16:37:11;;;;;;;;;;;;;;;;;;5078831;28;19978;-77
2023/03/28 16:39:38;;;;;;;;;;;;;;;;;;5074442;28;19935;-80
2023/03/28 16:42:05;;;;;;;;;;;;;;;;;;5085087;28;20178;-77
2023/03/28 16:44:32;;;;;;;;;;;;;;;;;;5080940;28;20019;-79
2023/03/28 16:46:59;;;;;;;;;;;;;;;;;;5082120;28;19929;-78
2023/03/28 16:49:26;;;;;;;;;;;;;;;;;;5081093;28;20006;-81